createdAt,value
2023-04-10T00:04:35.456Z,26.60
2023-04-10T00:09:38.449Z,27.83
2023-04-10T00:14:41.382Z,25.00
2023-04-10T00:19:45.676Z,25.43
2023-04-10T00:24:48.611Z,26.20
2023-04-10T00:29:51.484Z,27.53
2023-04-10T00:34:56.070Z,25.10
2023-04-10T00:39:59.022Z,27.60
2023-04-10T00:45:02.012Z,22.93
2023-04-10T00:50:07.564Z,23.40
2023-04-10T00:55:11.832Z,22.87
2023-04-10T01:00:15.849Z,23.13
2023-04-10T01:05:20.255Z,23.13
2023-04-10T01:10:34.409Z,22.37
2023-04-10T01:15:45.424Z,25.13
2023-04-10T01:20:49.675Z,22.00
2023-04-10T01:25:57.802Z,22.70
2023-04-10T01:31:03.795Z,21.90
2023-04-10T01:36:08.680Z,20.60
2023-04-10T01:41:11.630Z,24.33
2023-04-10T01:46:17.556Z,23.50
2023-04-10T01:51:20.857Z,24.30
2023-04-10T01:56:25.004Z,20.30
2023-04-10T02:01:30.469Z,21.17
2023-04-10T02:06:42.599Z,22.67
2023-04-10T02:11:50.551Z,22.37
2023-04-10T02:16:57.440Z,21.70
2023-04-10T02:22:01.636Z,21.73
2023-04-10T02:27:04.612Z,22.20
2023-04-10T02:32:09.162Z,20.97
2023-04-10T02:37:12.046Z,21.93
2023-04-10T02:42:15.073Z,20.60
2023-04-10T02:47:20.483Z,20.33
2023-04-10T02:52:24.660Z,19.80
2023-04-10T02:57:28.722Z,20.10
2023-04-10T03:02:33.285Z,20.37
2023-04-10T03:07:44.513Z,18.77
2023-04-10T03:12:48.777Z,17.93
2023-04-10T03:17:53.209Z,19.27
2023-04-10T03:22:56.277Z,18.17
2023-04-10T03:28:02.558Z,18.10
2023-04-10T03:33:07.282Z,19.10
2023-04-10T03:38:10.245Z,19.43
2023-04-10T03:43:13.198Z,23.27
2023-04-10T03:48:17.936Z,18.53
2023-04-10T03:53:23.081Z,19.23
2023-04-10T03:58:28.140Z,17.80
2023-04-10T04:03:33.963Z,19.23
2023-04-10T04:08:38.634Z,18.00
2023-04-10T04:13:53.632Z,17.00
2023-04-10T04:19:24.032Z,17.77
2023-04-10T04:24:42.790Z,17.67
2023-04-10T04:29:55.555Z,16.93
2023-04-10T04:35:02.969Z,17.70
2023-04-10T04:40:32.395Z,16.90
2023-04-10T04:45:49.536Z,17.63
2023-04-10T04:51:09.094Z,17.13
2023-04-10T04:56:22.792Z,19.47
2023-04-10T05:01:42.517Z,17.17
2023-04-10T05:07:07.112Z,18.10
2023-04-10T05:12:35.931Z,17.90
2023-04-10T05:18:14.368Z,16.63
2023-04-10T05:23:37.234Z,17.10
2023-04-10T05:29:05.604Z,17.90
2023-04-10T05:34:31.512Z,18.10
2023-04-10T05:39:46.961Z,17.43
2023-04-10T05:45:12.724Z,17.53
2023-04-10T05:50:41.498Z,18.40
2023-04-10T05:56:09.846Z,21.20
2023-04-10T06:01:42.791Z,18.33
2023-04-10T06:06:45.787Z,20.70
2023-04-10T06:11:50.150Z,20.50
2023-04-10T06:16:56.816Z,19.30
2023-04-10T06:21:59.886Z,21.77
2023-04-10T06:27:04.158Z,27.10
2023-04-10T06:32:07.028Z,30.60
2023-04-10T06:37:13.506Z,22.57
2023-04-10T06:42:18.814Z,22.70
2023-04-10T06:47:33.050Z,22.80
2023-04-10T06:52:35.971Z,22.70
2023-04-10T06:57:40.352Z,19.40
2023-04-10T07:02:43.248Z,19.27
2023-04-10T07:07:47.552Z,19.27
2023-04-10T07:12:51.890Z,17.43
2023-04-10T07:17:56.347Z,17.80
2023-04-10T07:22:59.317Z,18.67
2023-04-10T07:28:03.605Z,17.97
2023-04-10T07:33:06.837Z,18.17
2023-04-10T07:38:09.930Z,17.90
2023-04-10T07:43:14.198Z,18.13
2023-04-10T07:48:17.099Z,17.40
2023-04-10T07:53:20.028Z,17.40
2023-04-10T07:58:24.274Z,15.83
2023-04-10T08:03:27.816Z,17.07
2023-04-10T08:08:30.769Z,15.50
2023-04-10T08:13:35.258Z,15.90
2023-04-10T08:18:38.144Z,15.47
2023-04-10T08:23:41.043Z,15.70
2023-04-10T08:28:47.314Z,16.67
2023-04-10T08:33:50.609Z,15.77
2023-04-10T08:38:53.530Z,16.93
2023-04-10T08:43:58.383Z,15.50
2023-04-10T08:49:04.571Z,16.67
2023-04-10T08:54:11.924Z,15.23
2023-04-10T08:59:16.361Z,13.47
2023-04-10T09:04:19.357Z,14.57
2023-04-10T09:09:22.371Z,14.47
2023-04-10T09:14:28.597Z,14.33
2023-04-10T09:19:32.370Z,14.43
2023-04-10T09:24:37.706Z,14.63
2023-04-10T09:29:46.019Z,13.63
2023-04-10T09:34:57.276Z,15.30
2023-04-10T09:40:00.692Z,14.47
2023-04-10T09:45:06.435Z,14.70
2023-04-10T09:50:09.883Z,15.30
2023-04-10T09:55:18.570Z,15.33
2023-04-10T10:00:22.874Z,14.53
2023-04-10T10:05:28.131Z,13.90
2023-04-10T10:10:31.163Z,12.70
2023-04-10T10:15:39.976Z,12.67
2023-04-10T10:20:47.231Z,12.80
2023-04-10T10:25:52.314Z,12.47
2023-04-10T10:30:57.025Z,10.20
2023-04-10T10:36:01.165Z,11.80
2023-04-10T10:41:13.950Z,10.00
2023-04-10T10:46:23.568Z,9.93
2023-04-10T10:51:47.763Z,10.03
2023-04-10T10:56:50.718Z,9.03
2023-04-10T11:02:16.676Z,9.37
2023-04-10T11:07:20.078Z,8.70
2023-04-10T11:12:24.229Z,8.70
2023-04-10T11:17:51.850Z,9.10
2023-04-10T11:23:12.347Z,8.90
2023-04-10T11:28:36.817Z,10.37
2023-04-10T11:33:41.592Z,11.90
2023-04-10T11:38:55.273Z,11.33
2023-04-10T11:43:59.306Z,14.17
2023-04-10T11:49:05.306Z,14.90
2023-04-10T11:54:09.910Z,14.40
2023-04-10T11:59:14.462Z,13.40
2023-04-10T12:04:20.920Z,12.60
2023-04-10T12:09:24.450Z,11.60
2023-04-10T12:14:32.007Z,10.33
2023-04-10T12:19:36.864Z,9.80
2023-04-10T12:24:44.434Z,9.73
2023-04-10T12:29:47.849Z,9.10
2023-04-10T12:34:57.774Z,7.80
2023-04-10T12:40:07.275Z,6.97
2023-04-10T12:45:13.881Z,8.07
2023-04-10T12:50:20.770Z,7.30
2023-04-10T12:55:23.693Z,6.60
2023-04-10T13:00:26.723Z,6.97
2023-04-10T13:05:31.130Z,8.00
2023-04-10T13:10:34.031Z,6.90
2023-04-10T13:15:36.947Z,7.00
2023-04-10T13:20:42.094Z,7.93
2023-04-10T13:25:45.115Z,9.20
2023-04-10T13:30:48.069Z,8.90
2023-04-10T13:35:52.346Z,8.40
2023-04-10T13:40:55.351Z,7.83
2023-04-10T13:45:58.266Z,8.10
2023-04-10T13:51:02.569Z,6.93
2023-04-10T13:56:06.514Z,7.03
2023-04-10T14:01:09.560Z,6.30
2023-04-10T14:06:14.255Z,6.53
2023-04-10T14:11:17.346Z,6.37
2023-04-10T14:16:20.321Z,6.57
2023-04-10T14:21:24.711Z,6.13
2023-04-10T14:26:27.825Z,6.03
2023-04-10T14:31:30.815Z,5.63
2023-04-10T14:36:35.086Z,6.00
2023-04-10T14:41:38.091Z,6.20
2023-04-10T14:46:41.070Z,5.70
2023-04-10T14:51:48.407Z,6.17
2023-04-10T14:56:51.661Z,6.93
2023-04-10T15:01:54.861Z,7.70
2023-04-10T15:06:59.279Z,6.97
2023-04-10T15:12:02.205Z,8.00
2023-04-10T15:17:05.498Z,6.57
2023-04-10T15:22:10.002Z,6.90
2023-04-10T15:27:12.902Z,6.33
2023-04-10T15:32:15.987Z,7.60
2023-04-10T15:37:20.329Z,6.40
2023-04-10T15:42:23.182Z,7.87
2023-04-10T15:47:26.194Z,6.07
2023-04-10T15:52:32.735Z,6.77
2023-04-10T15:57:36.004Z,6.80
2023-04-10T16:02:39.501Z,6.43
2023-04-10T16:07:44.020Z,7.53
2023-04-10T16:12:47.009Z,7.60
2023-04-10T16:17:49.986Z,7.30
2023-04-10T16:22:54.619Z,8.13
2023-04-10T16:27:57.820Z,7.90
2023-04-10T16:33:00.767Z,7.47
2023-04-10T16:38:05.399Z,7.33
2023-04-10T16:43:09.476Z,6.80
2023-04-10T16:48:12.457Z,8.00
2023-04-10T16:53:17.761Z,8.83
2023-04-10T16:58:20.744Z,8.90
2023-04-10T17:03:23.706Z,6.30
2023-04-10T17:08:28.060Z,17.70
2023-04-10T17:13:30.983Z,6.80
2023-04-10T17:18:34.040Z,7.17
2023-04-10T17:23:38.281Z,6.70
2023-04-10T17:28:44.399Z,7.03
2023-04-10T17:33:47.380Z,7.37
2023-04-10T17:38:54.008Z,8.80
2023-04-10T17:43:57.338Z,8.80
2023-04-10T17:49:01.499Z,7.37
2023-04-10T17:54:06.098Z,7.37
2023-04-10T17:59:09.119Z,7.50
2023-04-10T18:04:12.041Z,8.07
2023-04-10T18:09:16.761Z,8.03
2023-04-10T18:14:20.258Z,8.63
2023-04-10T18:19:23.186Z,8.00
2023-04-10T18:24:27.582Z,10.13
2023-04-10T18:29:32.334Z,10.40
2023-04-10T18:34:35.986Z,9.00
2023-04-10T18:39:40.353Z,9.03
2023-04-10T18:44:43.273Z,8.30
2023-04-10T18:49:46.245Z,8.50
2023-04-10T18:54:50.594Z,10.70
2023-04-10T18:59:53.559Z,9.87
2023-04-10T19:04:56.558Z,9.23
2023-04-10T19:10:00.971Z,10.40
2023-04-10T19:15:05.618Z,10.23
2023-04-10T19:20:09.708Z,7.47
2023-04-10T19:25:13.978Z,9.10
2023-04-10T19:30:16.839Z,8.10
2023-04-10T19:35:19.697Z,8.27
2023-04-10T19:40:24.029Z,8.43
2023-04-10T19:45:29.152Z,8.80
2023-04-10T19:50:32.305Z,8.00
2023-04-10T19:55:36.555Z,9.23
2023-04-10T20:00:39.599Z,11.03
2023-04-10T20:05:42.582Z,10.50
2023-04-10T20:10:47.718Z,11.30
2023-04-10T20:15:50.962Z,8.70
2023-04-10T20:20:54.017Z,7.80
2023-04-10T20:25:58.250Z,7.73
2023-04-10T20:31:01.124Z,9.33
2023-04-10T20:36:04.228Z,8.37
2023-04-10T20:41:08.764Z,7.80
2023-04-10T20:46:11.713Z,7.57
2023-04-10T20:51:14.628Z,8.93
2023-04-10T20:56:21.090Z,9.10
2023-04-10T21:01:24.125Z,8.03
2023-04-10T21:06:27.066Z,7.10
2023-04-10T21:11:31.487Z,8.20
2023-04-10T21:16:34.859Z,7.40
2023-04-10T21:21:37.904Z,7.20
2023-04-10T21:26:42.235Z,6.97
2023-04-10T21:31:45.174Z,7.37
2023-04-10T21:36:48.238Z,7.03
2023-04-10T21:41:52.455Z,7.40
2023-04-10T21:46:55.369Z,7.70
2023-04-10T21:51:59.132Z,6.80
2023-04-10T21:57:03.447Z,7.40
2023-04-10T22:02:06.556Z,8.20
2023-04-10T22:07:09.547Z,10.10
2023-04-10T22:12:13.912Z,9.70
2023-04-10T22:17:16.770Z,9.60
2023-04-10T22:22:21.062Z,7.87
2023-04-10T22:27:25.833Z,9.47
2023-04-10T22:32:28.742Z,10.10
2023-04-10T22:37:31.680Z,10.20
2023-04-10T22:42:35.989Z,8.90
2023-04-10T22:47:38.953Z,8.70
2023-04-10T22:52:41.794Z,7.30
2023-04-10T22:57:49.590Z,6.37
2023-04-10T23:02:52.575Z,6.10
2023-04-10T23:07:56.316Z,7.80
2023-04-10T23:13:00.915Z,6.80
2023-04-10T23:18:03.794Z,6.10
2023-04-10T23:23:06.713Z,6.13
2023-04-10T23:28:11.173Z,7.00
2023-04-10T23:33:14.060Z,8.20
2023-04-10T23:38:17.063Z,7.10
2023-04-10T23:43:21.328Z,7.63
2023-04-10T23:48:24.220Z,6.43
2023-04-10T23:53:27.158Z,6.20
2023-04-10T23:58:31.462Z,6.33
